createdAt,value
2019-03-26T00:02:12.344Z,20.80
2019-03-26T00:04:59.062Z,20.77
2019-03-26T00:07:47.363Z,22.97
2019-03-26T00:10:30.511Z,21.37
2019-03-26T00:13:17.282Z,22.03
2019-03-26T00:16:02.534Z,24.60
2019-03-26T00:18:42.285Z,21.83
2019-03-26T00:21:24.803Z,20.93
2019-03-26T00:24:16.417Z,23.10
2019-03-26T00:27:00.413Z,22.57
2019-03-26T00:29:43.426Z,20.53
2019-03-26T00:32:36.361Z,19.80
2019-03-26T00:35:29.959Z,20.60
2019-03-26T00:38:10.528Z,24.43
2019-03-26T00:40:48.520Z,20.43
2019-03-26T00:43:30.473Z,23.87
2019-03-26T00:46:20.405Z,20.63
2019-03-26T00:49:06.436Z,19.87
2019-03-26T00:51:52.395Z,17.13
2019-03-26T00:54:43.057Z,23.27
2019-03-26T00:57:27.455Z,19.10
2019-03-26T01:00:10.567Z,17.40
2019-03-26T01:02:56.769Z,22.23
2019-03-26T01:05:45.012Z,19.83
2019-03-26T01:08:28.693Z,22.50
2019-03-26T01:11:18.889Z,19.20
2019-03-26T01:13:58.845Z,23.57
2019-03-26T01:16:36.564Z,19.80
2019-03-26T01:19:20.901Z,19.33
2019-03-26T01:22:10.544Z,19.50
2019-03-26T01:24:57.149Z,18.73
2019-03-26T01:27:46.501Z,23.10
2019-03-26T01:30:42.301Z,24.10
2019-03-26T01:33:27.095Z,22.17
2019-03-26T01:36:12.238Z,25.60
2019-03-26T01:38:51.220Z,25.23
2019-03-26T01:41:31.681Z,26.07
2019-03-26T01:44:26.077Z,27.33
2019-03-26T01:47:07.002Z,24.37
2019-03-26T01:49:54.256Z,24.23
2019-03-26T01:52:31.760Z,27.33
2019-03-26T01:55:16.688Z,23.97
2019-03-26T01:58:01.518Z,27.60
2019-03-26T02:00:49.959Z,25.63
2019-03-26T02:03:36.824Z,21.00
2019-03-26T02:06:36.152Z,25.30
2019-03-26T02:09:28.417Z,28.93
2019-03-26T02:12:24.685Z,30.03
2019-03-26T02:15:12.678Z,28.43
2019-03-26T02:18:00.452Z,24.60
2019-03-26T02:20:46.994Z,24.53
2019-03-26T02:23:34.745Z,29.47
2019-03-26T02:26:15.222Z,25.90
2019-03-26T02:29:02.789Z,24.10
2019-03-26T02:31:50.805Z,24.93
2019-03-26T02:34:38.150Z,30.10
2019-03-26T02:37:16.843Z,21.13
2019-03-26T02:40:12.432Z,25.40
2019-03-26T02:42:59.121Z,27.57
2019-03-26T02:45:49.753Z,28.97
2019-03-26T02:48:30.814Z,25.30
2019-03-26T02:51:17.920Z,26.00
2019-03-26T02:54:06.139Z,24.57
2019-03-26T02:56:49.637Z,25.60
2019-03-26T02:59:30.244Z,26.50
2019-03-26T03:02:13.571Z,28.03
2019-03-26T03:05:07.897Z,24.50
2019-03-26T03:07:45.908Z,26.53
2019-03-26T03:10:31.308Z,23.13
2019-03-26T03:13:16.486Z,26.43
2019-03-26T03:16:06.788Z,26.40
2019-03-26T03:18:55.047Z,29.53
2019-03-26T03:21:39.252Z,22.90
2019-03-26T03:24:21.627Z,29.40
2019-03-26T03:27:04.552Z,22.97
2019-03-26T03:29:48.359Z,25.83
2019-03-26T03:32:37.189Z,24.23
2019-03-26T03:35:52.646Z,23.43
2019-03-26T03:38:32.380Z,24.57
2019-03-26T03:41:22.619Z,27.47
2019-03-26T03:44:08.172Z,27.73
2019-03-26T03:46:50.652Z,24.63
2019-03-26T03:49:47.136Z,21.93
2019-03-26T03:52:28.508Z,20.83
2019-03-26T03:55:19.324Z,23.67
2019-03-26T03:58:00.867Z,23.83
2019-03-26T04:00:43.339Z,22.03
2019-03-26T04:03:33.791Z,21.37
2019-03-26T04:06:29.859Z,20.93
2019-03-26T04:09:10.705Z,20.87
2019-03-26T04:11:51.045Z,20.17
2019-03-26T04:14:39.968Z,18.20
2019-03-26T04:17:19.785Z,20.33
2019-03-26T04:20:06.350Z,16.83
2019-03-26T04:22:50.098Z,19.37
2019-03-26T04:25:46.770Z,21.20
2019-03-26T04:28:29.332Z,17.70
2019-03-26T04:31:23.797Z,20.73
2019-03-26T04:33:56.682Z,19.57
2019-03-26T04:36:47.966Z,20.73
2019-03-26T04:39:28.085Z,20.47
2019-03-26T04:42:14.123Z,20.53
2019-03-26T04:45:13.903Z,18.60
2019-03-26T04:48:00.110Z,19.17
2019-03-26T04:50:41.971Z,21.20
2019-03-26T04:53:34.204Z,20.47
2019-03-26T04:56:18.111Z,20.93
2019-03-26T04:58:57.655Z,21.73
2019-03-26T05:01:50.564Z,24.57
2019-03-26T05:04:28.424Z,23.63
2019-03-26T05:07:14.783Z,23.00
2019-03-26T05:10:21.820Z,18.07
2019-03-26T05:13:07.305Z,23.40
2019-03-26T05:16:03.996Z,29.83
2019-03-26T05:18:41.942Z,21.77
2019-03-26T05:21:25.977Z,22.93
2019-03-26T05:24:09.667Z,21.97
2019-03-26T05:26:57.079Z,21.90
2019-03-26T05:29:39.157Z,23.93
2019-03-26T05:32:20.754Z,24.10
2019-03-26T05:35:09.857Z,25.87
2019-03-26T05:38:03.267Z,26.30
2019-03-26T05:40:42.049Z,21.33
2019-03-26T05:43:26.420Z,20.90
2019-03-26T05:46:09.013Z,24.93
2019-03-26T05:49:05.909Z,22.47
2019-03-26T05:51:49.951Z,24.23
2019-03-26T05:54:39.375Z,21.47
2019-03-26T05:57:20.258Z,22.63
2019-03-26T06:00:12.230Z,23.13
2019-03-26T06:02:49.538Z,23.47
2019-03-26T06:05:27.980Z,26.97
2019-03-26T06:08:07.797Z,25.73
2019-03-26T06:10:48.590Z,26.33
2019-03-26T06:13:28.211Z,30.90
2019-03-26T06:16:06.759Z,27.30
2019-03-26T06:18:44.372Z,30.70
2019-03-26T06:21:23.140Z,21.07
2019-03-26T06:24:00.426Z,23.37
2019-03-26T06:26:37.698Z,20.10
2019-03-26T06:29:17.869Z,19.83
2019-03-26T06:31:55.488Z,24.20
2019-03-26T06:34:32.781Z,20.20
2019-03-26T06:37:17.906Z,15.63
2019-03-26T06:39:49.114Z,20.73
2019-03-26T06:42:26.618Z,21.80
2019-03-26T06:45:07.004Z,19.77
2019-03-26T06:47:44.391Z,18.77
2019-03-26T06:50:21.676Z,17.77
2019-03-26T06:52:59.025Z,20.63
2019-03-26T06:55:36.776Z,24.20
2019-03-26T06:58:14.036Z,26.77
2019-03-26T07:00:51.289Z,24.60
2019-03-26T07:03:28.645Z,24.47
2019-03-26T07:06:05.827Z,22.57
2019-03-26T07:08:45.359Z,21.00
2019-03-26T07:11:22.700Z,20.77
2019-03-26T07:13:59.997Z,22.53
2019-03-26T07:16:37.273Z,25.37
2019-03-26T07:19:17.525Z,21.43
2019-03-26T07:21:56.848Z,23.40
2019-03-26T07:24:34.185Z,21.63
2019-03-26T07:27:11.452Z,21.40
2019-03-26T07:29:48.777Z,24.80
2019-03-26T07:32:26.544Z,26.43
2019-03-26T07:35:04.543Z,23.23
2019-03-26T07:37:45.488Z,19.80
2019-03-26T07:40:20.816Z,17.50
2019-03-26T07:42:58.097Z,21.37
2019-03-26T07:45:35.359Z,16.90
2019-03-26T07:48:12.693Z,17.10
2019-03-26T07:50:50.002Z,17.97
2019-03-26T07:53:27.321Z,18.60
2019-03-26T07:56:05.036Z,16.17
2019-03-26T07:58:47.473Z,18.40
2019-03-26T08:01:25.217Z,17.13
2019-03-26T08:04:03.138Z,17.27
2019-03-26T08:06:41.070Z,14.27
2019-03-26T08:09:21.578Z,15.20
2019-03-26T08:11:58.955Z,15.37
2019-03-26T08:14:36.183Z,15.40
2019-03-26T08:17:13.520Z,17.83
2019-03-26T08:19:50.797Z,14.43
2019-03-26T08:22:29.310Z,19.50
2019-03-26T08:25:07.661Z,17.87
2019-03-26T08:27:45.045Z,17.57
2019-03-26T08:30:22.961Z,16.13
2019-03-26T08:33:00.323Z,15.97
2019-03-26T08:35:37.593Z,17.37
2019-03-26T08:38:14.968Z,18.77
2019-03-26T08:40:53.285Z,14.17
2019-03-26T08:43:31.216Z,15.87
2019-03-26T08:46:09.342Z,16.27
2019-03-26T08:48:47.193Z,17.40
2019-03-26T08:51:24.684Z,15.47
2019-03-26T08:54:03.169Z,13.53
2019-03-26T08:56:43.638Z,14.10
2019-03-26T08:59:23.474Z,14.37
2019-03-26T09:02:02.337Z,18.40
2019-03-26T09:04:39.938Z,16.47
2019-03-26T09:07:17.223Z,16.87
2019-03-26T09:09:54.567Z,18.90
2019-03-26T09:12:31.834Z,15.10
2019-03-26T09:15:09.234Z,15.80
2019-03-26T09:17:46.510Z,14.07
2019-03-26T09:20:23.888Z,16.17
2019-03-26T09:23:03.113Z,20.17
2019-03-26T09:25:40.485Z,16.60
2019-03-26T09:28:17.763Z,19.20
2019-03-26T09:30:55.045Z,14.27
2019-03-26T09:33:33.692Z,14.60
2019-03-26T09:36:12.240Z,19.20
2019-03-26T09:38:55.366Z,14.03
2019-03-26T09:41:39.920Z,15.00
2019-03-26T09:44:22.301Z,14.10
2019-03-26T09:47:16.106Z,13.03
2019-03-26T09:49:47.725Z,11.17
2019-03-26T09:52:25.191Z,13.90
2019-03-26T09:55:04.965Z,13.77
2019-03-26T09:57:42.636Z,15.73
2019-03-26T10:00:20.205Z,13.03
2019-03-26T10:02:57.799Z,15.83
2019-03-26T10:05:35.209Z,13.37
2019-03-26T10:08:12.667Z,10.47
2019-03-26T10:10:49.955Z,13.00
2019-03-26T10:13:27.276Z,10.37
2019-03-26T10:16:04.568Z,12.23
2019-03-26T10:18:41.794Z,12.60
2019-03-26T10:21:19.154Z,11.63
2019-03-26T10:23:58.491Z,10.83
2019-03-26T10:26:35.964Z,18.50
2019-03-26T10:29:24.193Z,10.77
2019-03-26T10:31:52.189Z,13.93
2019-03-26T10:34:29.373Z,11.77
2019-03-26T10:37:06.688Z,10.87
2019-03-26T10:39:44.011Z,10.03
2019-03-26T10:42:21.351Z,8.30
2019-03-26T10:44:58.634Z,9.60
2019-03-26T10:47:35.948Z,11.13
2019-03-26T10:50:13.248Z,7.87
2019-03-26T10:52:50.435Z,11.53
2019-03-26T10:55:27.722Z,11.20
2019-03-26T10:58:05.143Z,9.63
2019-03-26T11:00:42.440Z,8.93
2019-03-26T11:03:19.968Z,12.60
2019-03-26T11:05:57.276Z,12.07
2019-03-26T11:08:34.593Z,8.50
2019-03-26T11:11:11.809Z,9.37
2019-03-26T11:13:49.010Z,8.97
2019-03-26T11:16:26.528Z,11.83
2019-03-26T11:19:03.866Z,11.50
2019-03-26T11:21:41.100Z,14.57
2019-03-26T11:24:18.330Z,14.37
2019-03-26T11:26:55.706Z,12.80
2019-03-26T11:29:33.016Z,13.47
2019-03-26T11:32:10.248Z,14.70
2019-03-26T11:34:47.570Z,11.57
2019-03-26T11:37:24.884Z,16.10
2019-03-26T11:40:02.242Z,16.47
2019-03-26T11:42:42.243Z,11.60
2019-03-26T11:45:19.573Z,13.57
2019-03-26T11:47:56.988Z,12.37
2019-03-26T11:50:34.430Z,11.70
2019-03-26T11:53:11.865Z,13.37
2019-03-26T11:55:50.523Z,11.33
2019-03-26T11:58:30.744Z,13.80
2019-03-26T12:01:06.775Z,13.50
2019-03-26T12:03:44.127Z,15.37
2019-03-26T12:06:21.438Z,17.70
2019-03-26T12:08:58.754Z,12.87
2019-03-26T12:11:36.078Z,13.03
2019-03-26T12:14:13.267Z,13.73
2019-03-26T12:16:50.521Z,13.47
2019-03-26T12:19:27.804Z,12.77
2019-03-26T12:22:05.214Z,10.13
2019-03-26T12:24:45.228Z,8.90
2019-03-26T12:27:22.532Z,13.00
2019-03-26T12:29:59.728Z,14.07
2019-03-26T12:32:36.950Z,16.20
2019-03-26T12:35:17.317Z,14.60
2019-03-26T12:37:54.738Z,17.23
2019-03-26T12:40:32.024Z,16.47
2019-03-26T12:43:09.479Z,15.77
2019-03-26T12:45:46.747Z,17.10
2019-03-26T12:48:23.988Z,16.97
2019-03-26T12:51:01.304Z,18.07
2019-03-26T12:53:38.665Z,17.90
2019-03-26T12:56:15.973Z,17.57
2019-03-26T12:58:53.234Z,18.43
2019-03-26T13:01:30.509Z,18.93
2019-03-26T13:04:12.855Z,14.03
2019-03-26T13:06:46.727Z,13.27
2019-03-26T13:09:24.074Z,14.73
2019-03-26T13:12:01.181Z,15.50
2019-03-26T13:14:38.389Z,11.60
2019-03-26T13:17:15.713Z,10.70
2019-03-26T13:19:52.924Z,12.13
2019-03-26T13:22:30.213Z,12.93
2019-03-26T13:25:08.397Z,10.27
2019-03-26T13:27:45.695Z,13.47
2019-03-26T13:30:24.400Z,12.03
2019-03-26T13:33:03.929Z,14.10
2019-03-26T13:35:41.252Z,10.87
2019-03-26T13:38:18.468Z,6.90
2019-03-26T13:40:55.799Z,7.33
2019-03-26T13:43:33.088Z,7.23
2019-03-26T13:46:10.377Z,8.10
2019-03-26T13:48:47.581Z,10.20
2019-03-26T13:51:24.921Z,6.80
2019-03-26T13:54:02.272Z,11.83
2019-03-26T13:56:39.554Z,9.43
2019-03-26T13:59:16.868Z,12.57
2019-03-26T14:01:54.199Z,10.67
2019-03-26T14:04:31.546Z,12.00
2019-03-26T14:07:08.864Z,7.70
2019-03-26T14:09:46.155Z,11.23
2019-03-26T14:12:23.347Z,11.37
2019-03-26T14:15:00.592Z,11.70
2019-03-26T14:17:37.923Z,11.40
2019-03-26T14:20:15.172Z,11.30
2019-03-26T14:22:52.509Z,11.87
2019-03-26T14:25:31.352Z,10.80
2019-03-26T14:28:08.695Z,13.50
2019-03-26T14:30:46.024Z,10.90
2019-03-26T14:33:23.534Z,10.70
2019-03-26T14:36:00.884Z,13.63
2019-03-26T14:38:39.024Z,13.83
2019-03-26T14:41:16.289Z,10.80
2019-03-26T14:43:55.313Z,12.53
2019-03-26T14:46:32.574Z,13.80
2019-03-26T14:49:09.919Z,13.40
2019-03-26T14:51:48.609Z,13.13
2019-03-26T14:54:26.000Z,11.60
2019-03-26T14:57:03.296Z,9.80
2019-03-26T14:59:40.652Z,13.77
2019-03-26T15:02:18.004Z,13.70
2019-03-26T15:04:55.401Z,13.67
2019-03-26T15:07:32.721Z,15.50
2019-03-26T15:10:10.069Z,27.10
2019-03-26T15:12:47.401Z,14.90
2019-03-26T15:15:24.620Z,18.37
2019-03-26T15:18:01.919Z,11.53
2019-03-26T15:20:39.185Z,13.83
2019-03-26T15:23:16.544Z,14.57
2019-03-26T15:25:53.829Z,16.23
2019-03-26T15:28:32.753Z,17.47
2019-03-26T15:31:10.047Z,14.93
2019-03-26T15:33:47.296Z,12.77
2019-03-26T15:36:24.572Z,14.57
2019-03-26T15:39:01.921Z,11.67
2019-03-26T15:41:39.110Z,13.17
2019-03-26T15:44:16.445Z,13.70
2019-03-26T15:46:53.593Z,12.27
2019-03-26T15:49:30.925Z,12.33
2019-03-26T15:52:08.263Z,15.77
2019-03-26T15:54:45.491Z,14.37
2019-03-26T15:57:22.825Z,13.93
2019-03-26T16:00:00.036Z,17.70
2019-03-26T16:02:38.276Z,11.97
2019-03-26T16:05:15.549Z,19.07
2019-03-26T16:07:52.875Z,14.53
2019-03-26T16:10:30.170Z,15.73
2019-03-26T16:13:07.470Z,15.60
2019-03-26T16:15:45.326Z,15.33
2019-03-26T16:18:22.610Z,20.43
2019-03-26T16:20:59.963Z,14.47
2019-03-26T16:23:37.263Z,15.90
2019-03-26T16:26:14.604Z,13.80
2019-03-26T16:28:51.933Z,17.90
2019-03-26T16:31:29.262Z,12.47
2019-03-26T16:34:06.476Z,14.03
2019-03-26T16:36:43.714Z,13.00
2019-03-26T16:39:21.018Z,11.43
2019-03-26T16:41:58.389Z,10.20
2019-03-26T16:44:35.567Z,17.23
2019-03-26T16:47:12.896Z,12.83
2019-03-26T16:49:50.098Z,14.73
2019-03-26T16:52:27.460Z,13.03
2019-03-26T16:55:07.930Z,16.77
2019-03-26T16:57:46.179Z,15.97
2019-03-26T17:00:31.488Z,16.10
2019-03-26T17:03:08.841Z,14.73
2019-03-26T17:05:46.190Z,19.70
2019-03-26T17:08:23.457Z,17.83
2019-03-26T17:11:00.765Z,18.53
2019-03-26T17:13:38.099Z,14.20
2019-03-26T17:16:15.298Z,11.43
2019-03-26T17:18:52.657Z,13.33
2019-03-26T17:21:33.838Z,13.63
2019-03-26T17:24:11.205Z,12.00
2019-03-26T17:26:49.119Z,11.77
2019-03-26T17:29:26.447Z,17.37
2019-03-26T17:32:03.663Z,10.57
2019-03-26T17:34:40.993Z,11.40
2019-03-26T17:37:18.330Z,12.10
2019-03-26T17:39:55.642Z,17.73
2019-03-26T17:42:32.944Z,10.57
2019-03-26T17:45:10.255Z,10.53
2019-03-26T17:47:47.583Z,15.50
2019-03-26T17:50:24.906Z,7.67
2019-03-26T17:53:02.196Z,5.57
2019-03-26T17:55:39.511Z,11.90
2019-03-26T17:58:20.551Z,12.13
2019-03-26T18:00:59.811Z,13.30
2019-03-26T18:03:37.073Z,12.77
2019-03-26T18:06:15.669Z,11.97
2019-03-26T18:08:52.989Z,16.93
2019-03-26T18:11:33.529Z,13.83
2019-03-26T18:14:10.870Z,12.90
2019-03-26T18:16:48.529Z,14.07
2019-03-26T18:19:26.499Z,18.63
2019-03-26T18:22:03.903Z,10.07
2019-03-26T18:25:13.259Z,14.80
2019-03-26T18:28:02.395Z,11.67
2019-03-26T18:30:39.714Z,14.43
2019-03-26T18:33:16.964Z,11.20
2019-03-26T18:35:54.133Z,12.40
2019-03-26T18:38:31.383Z,11.93
2019-03-26T18:41:08.678Z,11.33
2019-03-26T18:43:48.458Z,11.40
2019-03-26T18:46:26.832Z,17.40
2019-03-26T18:49:04.168Z,15.60
2019-03-26T18:51:41.390Z,14.47
2019-03-26T18:54:18.776Z,17.57
2019-03-26T18:56:55.982Z,15.27
2019-03-26T18:59:33.226Z,14.47
2019-03-26T19:02:10.550Z,15.07
2019-03-26T19:04:48.058Z,17.43
2019-03-26T19:07:25.504Z,17.93
2019-03-26T19:10:02.823Z,15.23
2019-03-26T19:12:41.725Z,15.27
2019-03-26T19:15:19.071Z,17.37
2019-03-26T19:17:56.362Z,14.07
2019-03-26T19:20:35.577Z,14.07
2019-03-26T19:23:15.602Z,11.87
2019-03-26T19:25:52.939Z,16.43
2019-03-26T19:28:30.343Z,13.10
2019-03-26T19:31:07.660Z,11.30
2019-03-26T19:33:45.006Z,13.40
2019-03-26T19:36:22.364Z,11.43
2019-03-26T19:39:07.925Z,14.30
2019-03-26T19:41:46.456Z,14.67
2019-03-26T19:44:23.774Z,15.67
2019-03-26T19:47:01.207Z,14.00
2019-03-26T19:49:38.632Z,14.77
2019-03-26T19:52:15.929Z,13.50
2019-03-26T19:54:53.245Z,15.03
2019-03-26T19:57:30.595Z,21.13
2019-03-26T20:00:11.223Z,15.30
2019-03-26T20:02:48.542Z,14.93
2019-03-26T20:05:25.991Z,17.93
2019-03-26T20:08:03.349Z,16.93
2019-03-26T20:10:40.838Z,20.73
2019-03-26T20:13:24.273Z,22.67
2019-03-26T20:15:57.536Z,19.53
2019-03-26T20:18:34.944Z,20.30
2019-03-26T20:21:12.316Z,19.30
2019-03-26T20:23:49.631Z,17.73
2019-03-26T20:26:26.999Z,19.57
2019-03-26T20:29:04.261Z,16.07
2019-03-26T20:31:41.666Z,18.57
2019-03-26T20:34:19.838Z,20.90
2019-03-26T20:36:57.142Z,22.03
2019-03-26T20:39:34.641Z,21.87
2019-03-26T20:42:11.966Z,20.63
2019-03-26T20:45:26.331Z,21.43
2019-03-26T20:48:03.662Z,18.43
2019-03-26T20:50:40.957Z,21.03
2019-03-26T20:53:21.097Z,18.97
2019-03-26T20:55:58.618Z,20.43
2019-03-26T20:58:37.261Z,24.33
2019-03-26T21:01:16.353Z,23.83
2019-03-26T21:03:54.458Z,24.33
2019-03-26T21:06:31.684Z,24.23
2019-03-26T21:09:09.264Z,30.87
2019-03-26T21:11:46.768Z,25.47
2019-03-26T21:14:24.117Z,27.67
2019-03-26T21:17:01.615Z,25.73
2019-03-26T21:19:38.923Z,23.70
2019-03-26T21:22:16.330Z,28.50
2019-03-26T21:24:53.641Z,22.70
2019-03-26T21:27:31.014Z,21.03
2019-03-26T21:30:15.565Z,23.23
2019-03-26T21:32:51.249Z,23.33
2019-03-26T21:35:29.005Z,26.57
2019-03-26T21:38:06.713Z,22.93
2019-03-26T21:40:47.125Z,27.07
2019-03-26T21:43:22.904Z,22.47
2019-03-26T21:46:00.349Z,20.93
2019-03-26T21:48:41.736Z,24.97
2019-03-26T21:51:19.076Z,21.77
2019-03-26T21:53:56.247Z,28.80
2019-03-26T21:56:33.577Z,26.67
2019-03-26T21:59:10.727Z,32.03
2019-03-26T22:01:48.129Z,38.33
2019-03-26T22:04:30.556Z,33.53
2019-03-26T22:07:22.027Z,42.13
2019-03-26T22:10:08.987Z,34.57
2019-03-26T22:12:57.202Z,40.20
2019-03-26T22:15:39.729Z,34.17
2019-03-26T22:18:20.659Z,35.70
2019-03-26T22:21:28.035Z,34.93
2019-03-26T22:24:29.484Z,31.23
2019-03-26T22:27:28.297Z,35.53
2019-03-26T22:30:20.554Z,37.47
2019-03-26T22:33:16.769Z,43.17
2019-03-26T22:36:02.443Z,36.83
2019-03-26T22:38:39.828Z,45.50
2019-03-26T22:41:31.440Z,38.80
2019-03-26T22:44:14.450Z,31.77
2019-03-26T22:47:08.063Z,36.87
2019-03-26T22:50:00.404Z,31.23
2019-03-26T22:52:43.954Z,33.33
2019-03-26T22:55:30.041Z,32.03
2019-03-26T22:58:08.445Z,31.40
2019-03-26T23:00:52.301Z,34.70
2019-03-26T23:03:45.962Z,32.03
2019-03-26T23:06:37.933Z,32.20
2019-03-26T23:09:17.912Z,35.13
2019-03-26T23:12:07.992Z,34.73
2019-03-26T23:15:05.452Z,33.93
2019-03-26T23:17:48.415Z,32.60
2019-03-26T23:20:33.522Z,30.07
2019-03-26T23:23:12.508Z,26.63
2019-03-26T23:25:58.794Z,27.57
2019-03-26T23:28:43.832Z,30.77
2019-03-26T23:31:42.065Z,32.17
2019-03-26T23:34:27.506Z,30.47
2019-03-26T23:37:10.266Z,18.73
2019-03-26T23:39:50.226Z,22.00
2019-03-26T23:42:44.705Z,16.87
2019-03-26T23:45:27.983Z,20.23
2019-03-26T23:48:16.522Z,19.13
2019-03-26T23:51:05.157Z,17.27
2019-03-26T23:53:51.181Z,18.17
2019-03-26T23:56:28.878Z,17.80
2019-03-26T23:59:13.802Z,18.57
